Arpin, Wisconsin
Current Conditions -  °F | °C
As of 2:54 AM on Friday 24 Oct 2014 (Local Time) from KMFI Reporting Station
Moderate Fog Moderate Fog  
Wind Chill: 44°   Ceiling: 200
Heat Index: 46°   Visibility: 0.25mi
Dew Point: 46°   Wind: 5mph
Humidity: 100%   Direction: 250°WSW
Pressure: 30.03"   Gusts: NA
Location:  44.54°N, 90.04°W
Report Text: KMFI 240754Z AUTO 25004KT 1/4SM FG VV002 08/08 A3003 RMK AO2 SLP174 T00780078
Loading
Personal Weather Stations






























Interactive Weather Map
Tropical Storm Tracking
New forecast layout! Learn more

10-Day Weather Forecast

Advertisements
Track Severe Weather on mobile